Time;durP1;ratioP1;P1;durP2;ratioP2;P2;SDS_P1;SDS_P2;PMS_P1;PMS_P2;Temp;Humidity;BMP_temperature;BMP_pressure;BME280_temperature;BME280_humidity;BME280_pressure;Samples;Min_cycle;Max_cycle;Signal;HPM_P1;HPM_P2
2021/06/09 00:00:23;;;;;;;2.95;1.20;;;24.90;42.30;;;;;;4359370;32;20059;-38
2021/06/09 00:02:50;;;;;;;2.85;1.17;;;25.00;42.00;;;;;;4345985;32;20494;-38
2021/06/09 00:05:16;;;;;;;2.03;0.90;;;25.10;42.00;;;;;;4359150;32;20066;-37
2021/06/09 00:07:43;;;;;;;2.20;0.90;;;25.00;41.90;;;;;;4359124;32;20071;-37
2021/06/09 00:10:10;;;;;;;2.55;1.05;;;25.00;42.00;;;;;;4345194;32;20075;-38
2021/06/09 00:12:36;;;;;;;3.35;1.55;;;24.80;42.20;;;;;;4355460;32;20179;-38
2021/06/09 00:15:07;;;;;;;8.35;2.08;;;24.70;42.70;;;;;;4330249;33;20051;-38
2021/06/09 00:17:33;;;;;;;5.60;2.47;;;24.60;43.30;;;;;;4344105;33;20527;-38
2021/06/09 00:20:00;;;;;;;10.45;2.90;;;24.50;43.60;;;;;;4344129;32;20560;-38
2021/06/09 00:22:27;;;;;;;8.10;3.08;;;24.40;43.80;;;;;;4344206;32;20153;-39
2021/06/09 00:24:53;;;;;;;8.25;3.83;;;24.30;43.80;;;;;;4344879;33;20078;-38
2021/06/09 00:27:20;;;;;;;8.60;4.15;;;24.30;43.90;;;;;;4344173;33;20059;-37
2021/06/09 00:29:46;;;;;;;10.73;4.87;;;24.30;43.90;;;;;;4330004;33;20105;-38
2021/06/09 00:32:13;;;;;;;10.10;4.65;;;24.30;44.10;;;;;;4343888;32;20086;-38
2021/06/09 00:34:39;;;;;;;13.13;4.37;;;24.20;43.90;;;;;;4343819;32;20556;-38
2021/06/09 00:37:05;;;;;;;10.43;4.65;;;24.20;44.00;;;;;;4344140;32;20098;-37
2021/06/09 00:39:32;;;;;;;7.57;3.35;;;24.20;44.00;;;;;;4343847;33;20063;-38
2021/06/09 00:41:58;;;;;;;12.77;4.12;;;24.20;44.00;;;;;;4343978;32;20176;-37
2021/06/09 00:44:25;;;;;;;9.57;4.18;;;24.20;44.00;;;;;;4343683;32;20066;-38
2021/06/09 00:46:51;;;;;;;6.05;4.05;;;24.20;44.00;;;;;;4343802;33;20094;-38
2021/06/09 00:49:18;;;;;;;6.45;3.67;;;24.20;44.10;;;;;;4343447;32;20102;-37
2021/06/09 00:51:44;;;;;;;6.72;3.60;;;24.20;44.30;;;;;;4311324;33;20177;-38
2021/06/09 00:54:11;;;;;;;7.75;3.08;;;24.20;44.20;;;;;;4311779;33;20146;-38
2021/06/09 00:56:38;;;;;;;31.67;6.43;;;24.20;44.20;;;;;;4311998;33;20067;-38
2021/06/09 00:59:05;;;;;;;7.97;3.80;;;24.20;44.20;;;;;;4299214;33;20536;-38
2021/06/09 01:01:32;;;;;;;7.03;3.62;;;24.10;44.10;;;;;;4299578;33;20657;-39
2021/06/09 01:03:59;;;;;;;4.12;2.25;;;24.10;44.30;;;;;;4311990;33;20075;-38
2021/06/09 01:06:25;;;;;;;9.05;3.05;;;24.10;44.40;;;;;;4311634;33;20457;-37
2021/06/09 01:08:52;;;;;;;6.55;3.03;;;24.10;45.10;;;;;;4311611;33;20059;-38
2021/06/09 01:11:22;;;;;;;20.25;6.45;;;24.10;44.70;;;;;;4299556;33;20095;-38
2021/06/09 01:13:49;;;;;;;7.78;3.42;;;24.20;44.80;;;;;;4322140;33;20105;-38
2021/06/09 01:16:17;;;;;;;7.37;3.20;;;24.30;44.60;;;;;;4313735;33;20158;-38
2021/06/09 01:18:44;;;;;;;5.22;2.75;;;24.50;44.50;;;;;;4314285;33;20617;-38
2021/06/09 01:21:10;;;;;;;5.70;2.72;;;24.60;44.10;;;;;;4314295;33;20083;-39
2021/06/09 01:23:37;;;;;;;5.43;3.00;;;24.70;43.90;;;;;;4353316;32;20089;-38
2021/06/09 01:26:06;;;;;;;6.07;2.47;;;24.90;43.80;;;;;;4358071;32;20072;-38
2021/06/09 01:28:34;;;;;;;11.12;2.83;;;25.00;43.50;;;;;;4358438;32;20070;-38
2021/06/09 01:31:00;;;;;;;4.80;2.25;;;25.10;43.30;;;;;;4344584;32;20074;-39
2021/06/09 01:33:27;;;;;;;4.82;2.15;;;25.30;42.90;;;;;;4332103;32;20098;-38
2021/06/09 01:35:54;;;;;;;3.40;3.10;;;25.50;42.60;;;;;;4357938;32;20055;-38
2021/06/09 01:38:21;;;;;;;9.23;4.28;;;25.60;42.40;;;;;;4357892;32;20091;-39
2021/06/09 01:40:48;;;;;;;12.02;4.68;;;25.70;42.20;;;;;;4358044;32;20062;-39
2021/06/09 01:43:15;;;;;;;5.10;2.87;;;25.80;42.20;;;;;;4357574;32;20101;-39
2021/06/09 01:45:41;;;;;;;5.62;3.08;;;26.00;42.00;;;;;;4344409;32;20082;-38
2021/06/09 01:48:09;;;;;;;5.93;3.40;;;26.30;41.60;;;;;;4344079;32;20093;-39
2021/06/09 01:50:37;;;;;;;5.12;2.08;;;26.70;41.50;;;;;;4359624;32;20058;-39
2021/06/09 01:53:03;;;;;;;7.18;2.15;;;27.20;40.70;;;;;;4362884;32;20062;-40
2021/06/09 01:55:34;;;;;;;26.92;3.58;;;27.60;40.00;;;;;;4362845;32;20082;-39
2021/06/09 01:58:01;;;;;;;7.03;2.58;;;28.10;39.50;;;;;;4349156;32;20074;-40
2021/06/09 02:00:35;;;;;;;6.87;2.58;;;28.50;38.50;;;;;;4363143;32;20073;-40
2021/06/09 02:03:01;;;;;;;3.58;2.35;;;28.80;38.10;;;;;;4363043;32;20073;-40
2021/06/09 02:05:33;;;;;;;10.65;2.25;;;29.00;37.50;;;;;;4363067;32;20164;-39
2021/06/09 02:08:03;;;;;;;3.65;2.00;;;29.20;37.40;;;;;;4363032;32;20074;-40
2021/06/09 02:10:30;;;;;;;8.85;3.35;;;29.50;37.00;;;;;;4363136;32;20222;-39
2021/06/09 02:12:59;;;;;;;3.92;1.30;;;29.80;36.60;;;;;;4343292;33;20078;-39
2021/06/09 02:15:26;;;;;;;4.10;1.70;;;30.10;36.50;;;;;;4348064;33;20085;-40
2021/06/09 02:18:07;;;;;;;8.32;2.00;;;30.40;36.20;;;;;;4347872;33;20094;-40
2021/06/09 02:20:34;;;;;;;6.62;1.55;;;30.90;35.60;;;;;;4348019;32;20050;-40
2021/06/09 02:23:01;;;;;;;5.97;1.20;;;31.50;34.50;;;;;;4301118;33;20086;-40
2021/06/09 02:25:28;;;;;;;6.87;1.77;;;31.90;33.30;;;;;;4289162;33;20522;-40
2021/06/09 02:27:54;;;;;;;4.12;1.40;;;32.20;32.70;;;;;;4277231;33;20076;-39
2021/06/09 02:30:21;;;;;;;6.32;1.90;;;32.50;32.40;;;;;;4289404;33;20087;-40
2021/06/09 02:32:48;;;;;;;4.37;1.35;;;32.60;32.00;;;;;;4286937;33;20075;-40
2021/06/09 02:35:18;;;;;;;5.10;1.20;;;32.80;31.60;;;;;;4286647;33;20064;-40
2021/06/09 02:37:52;;;;;;;4.40;1.40;;;32.90;31.70;;;;;;4257702;33;20096;-39
2021/06/09 02:40:21;;;;;;;6.47;1.20;;;32.90;31.60;;;;;;4258049;33;20072;-40
2021/06/09 02:42:49;;;;;;;2.62;1.00;;;32.90;31.40;;;;;;4258266;33;20095;-40
2021/06/09 02:45:18;;;;;;;3.53;1.37;;;33.10;31.70;;;;;;4258122;33;20107;-41
2021/06/09 02:47:54;;;;;;;5.43;1.67;;;33.40;31.50;;;;;;4257928;33;20198;-41
2021/06/09 02:50:23;;;;;;;2.12;1.23;;;33.60;30.70;;;;;;4258330;33;20084;-41
2021/06/09 02:53:16;;;;;;;4.82;1.35;;;33.90;30.90;;;;;;4257612;33;20084;-41
2021/06/09 02:56:19;;;;;;;1.75;1.33;;;34.30;30.80;;;;;;4257854;33;20091;-41
2021/06/09 02:59:12;;;;;;;3.92;1.58;;;34.80;30.50;;;;;;4257861;33;20083;-40
2021/06/09 03:01:56;;;;;;;7.75;1.75;;;35.40;30.10;;;;;;4284637;33;20114;-40
2021/06/09 03:04:45;;;;;;;6.75;1.62;;;35.90;29.50;;;;;;4273302;33;20061;-40
2021/06/09 03:07:27;;;;;;;4.62;1.75;;;36.50;28.90;;;;;;4284115;33;20226;-42
2021/06/09 03:10:02;;;;;;;5.68;3.28;;;37.00;28.30;;;;;;4284311;33;20136;-42
2021/06/09 03:12:54;;;;;;;7.30;3.22;;;37.40;28.30;;;;;;4287152;33;20119;-42
2021/06/09 03:15:38;;;;;;;14.80;7.20;;;37.90;27.90;;;;;;4303368;33;20089;-42
2021/06/09 03:18:17;;;;;;;8.00;3.42;;;38.20;27.20;;;;;;4328575;33;20079;-43
2021/06/09 03:21:06;;;;;;;10.40;4.47;;;38.50;27.00;;;;;;4330198;33;20055;-42
2021/06/09 03:24:02;;;;;;;20.75;10.10;;;38.70;26.90;;;;;;4328964;33;20074;-41
2021/06/09 03:26:39;;;;;;;14.35;6.87;;;38.80;26.70;;;;;;4329765;33;20142;-41
2021/06/09 03:29:25;;;;;;;11.20;5.07;;;38.80;26.40;;;;;;4330396;33;20114;-41
2021/06/09 03:31:56;;;;;;;9.35;5.07;;;38.40;26.00;;;;;;4329849;33;20143;-41
2021/06/09 03:34:30;;;;;;;15.45;7.03;;;37.90;26.30;;;;;;4357105;32;20070;-40
2021/06/09 03:36:57;;;;;;;;;;;37.50;26.40;;;;;;4359887;32;20203;-41
2021/06/09 03:39:25;;;;;;;30.67;17.17;;;37.10;26.70;;;;;;4345722;32;19962;-41
2021/06/09 03:41:57;;;;;;;29.98;16.52;;;36.80;26.70;;;;;;4333709;32;20156;-41
2021/06/09 03:44:36;;;;;;;22.02;12.45;;;36.50;27.30;;;;;;4345653;32;20134;-41
2021/06/09 03:47:03;;;;;;;30.27;11.50;;;36.50;27.40;;;;;;4345861;32;20066;-41
2021/06/09 03:49:30;;;;;;;20.60;11.12;;;36.70;27.10;;;;;;4359306;32;20075;-40
2021/06/09 03:51:57;;;;;;;17.73;10.13;;;36.70;26.80;;;;;;4359382;32;20150;-41
2021/06/09 03:54:29;;;;;;;15.60;9.57;;;36.60;27.10;;;;;;4345798;32;20210;-41
2021/06/09 03:56:56;;;;;;;22.05;7.87;;;36.50;26.70;;;;;;4334041;32;20167;-39
2021/06/09 03:59:22;;;;;;;15.65;9.00;;;36.50;27.00;;;;;;4345534;32;20063;-41
2021/06/09 04:01:49;;;;;;;13.73;7.10;;;36.60;27.00;;;;;;4333198;32;20062;-41
2021/06/09 04:04:19;;;;;;;11.70;5.87;;;36.60;26.50;;;;;;4345563;32;20171;-41
2021/06/09 04:06:46;;;;;;;15.23;6.97;;;36.80;26.60;;;;;;4345799;32;20066;-41
2021/06/09 04:09:20;;;;;;;12.57;6.12;;;37.00;26.40;;;;;;4333317;32;20141;-41
2021/06/09 04:11:54;;;;;;;18.30;7.15;;;37.10;26.40;;;;;;4345796;32;20603;-40
2021/06/09 04:14:23;;;;;;;13.98;6.93;;;37.40;26.50;;;;;;4331384;33;20213;-42
2021/06/09 04:16:49;;;;;;;15.30;6.05;;;37.60;26.40;;;;;;4330603;33;20072;-42
2021/06/09 04:19:15;;;;;;;10.45;4.12;;;37.90;27.50;;;;;;4317979;33;20117;-41
2021/06/09 04:21:42;;;;;;;12.02;3.83;;;38.10;28.60;;;;;;4330490;33;20175;-40
2021/06/09 04:24:09;;;;;;;11.12;3.42;;;38.20;28.90;;;;;;4343914;32;20108;-41
2021/06/09 04:26:37;;;;;;;5.90;3.67;;;38.10;29.10;;;;;;4330305;33;20094;-41
2021/06/09 04:29:03;;;;;;;9.30;4.97;;;38.00;29.30;;;;;;4317972;33;20503;-41
2021/06/09 04:31:30;;;;;;;6.85;3.95;;;37.90;29.40;;;;;;4330258;33;20508;-41
2021/06/09 04:33:57;;;;;;;5.78;4.35;;;37.70;29.60;;;;;;4317769;33;20074;-42
2021/06/09 04:36:24;;;;;;;5.35;4.60;;;37.60;29.60;;;;;;4343721;33;20054;-40
2021/06/09 04:38:50;;;;;;;10.68;4.90;;;37.30;29.70;;;;;;4344035;32;20063;-39
2021/06/09 04:41:18;;;;;;;10.90;4.37;;;37.00;29.70;;;;;;4329711;33;20150;-40
2021/06/09 04:43:46;;;;;;;10.90;5.07;;;36.70;29.80;;;;;;4330235;33;20500;-41
2021/06/09 04:46:18;;;;;;;10.90;5.22;;;36.60;30.00;;;;;;4343578;33;20119;-40
2021/06/09 04:49:03;;;;;;;9.07;5.53;;;36.40;30.00;;;;;;4318017;33;20093;-40
2021/06/09 04:51:32;;;;;;;11.65;4.87;;;36.20;30.40;;;;;;4343535;32;20062;-41
2021/06/09 04:54:00;;;;;;;15.02;5.68;;;36.20;30.40;;;;;;4342972;32;20069;-41
2021/06/09 04:56:32;;;;;;;12.18;5.97;;;35.90;30.80;;;;;;4343591;33;20498;-41
2021/06/09 04:59:01;;;;;;;11.18;6.68;;;35.70;30.80;;;;;;4342904;32;20077;-40
2021/06/09 05:01:29;;;;;;;10.90;7.20;;;35.30;31.60;;;;;;4343046;33;20059;-41
2021/06/09 05:03:56;;;;;;;18.55;7.62;;;34.90;31.90;;;;;;4330036;33;20151;-42
2021/06/09 05:06:23;;;;;;;13.85;6.50;;;34.70;32.50;;;;;;4343710;32;20134;-40
2021/06/09 05:08:50;;;;;;;14.68;6.50;;;34.50;32.70;;;;;;4329498;33;20476;-41
2021/06/09 05:11:31;;;;;;;13.82;6.87;;;34.30;33.10;;;;;;4318031;33;20218;-42
2021/06/09 05:13:58;;;;;;;15.10;7.35;;;34.20;33.30;;;;;;4330670;32;20158;-42
2021/06/09 05:16:24;;;;;;;15.10;7.30;;;34.10;33.30;;;;;;4332198;32;20086;-41
2021/06/09 05:18:54;;;;;;;19.87;7.50;;;34.20;33.30;;;;;;4332265;32;20054;-41
2021/06/09 05:21:24;;;;;;;13.30;7.47;;;34.20;33.10;;;;;;4344296;32;20560;-42
2021/06/09 05:23:52;;;;;;;14.65;8.82;;;34.40;33.50;;;;;;4344302;32;20081;-41
2021/06/09 05:26:19;;;;;;;12.52;8.15;;;34.70;32.50;;;;;;4344237;32;20514;-41
2021/06/09 05:28:50;;;;;;;13.10;7.32;;;35.00;32.10;;;;;;4344216;32;20069;-41
2021/06/09 05:31:17;;;;;;;15.23;7.07;;;35.20;32.40;;;;;;4357877;32;20193;-41
2021/06/09 05:33:44;;;;;;;9.57;6.93;;;35.60;32.80;;;;;;4343817;32;20058;-41
2021/06/09 05:36:12;;;;;;;13.62;7.87;;;36.00;32.40;;;;;;4344029;32;20047;-41
2021/06/09 05:38:38;;;;;;;14.27;7.72;;;36.30;32.00;;;;;;4344205;32;20070;-41
2021/06/09 05:41:05;;;;;;;76.68;10.32;;;36.60;31.60;;;;;;4343803;32;20063;-41
2021/06/09 05:43:32;;;;;;;10.93;7.35;;;36.80;31.20;;;;;;4357542;32;20094;-41
2021/06/09 05:46:07;;;;;;;21.42;9.15;;;37.00;31.30;;;;;;4357736;32;20077;-42
2021/06/09 05:48:41;;;;;;;14.95;8.15;;;37.20;31.10;;;;;;4357533;32;20054;-41
2021/06/09 05:51:09;;;;;;;17.23;9.80;;;37.40;30.80;;;;;;4358020;32;20109;-41
2021/06/09 05:53:36;;;;;;;13.85;9.48;;;37.60;30.80;;;;;;4343423;32;20168;-41
2021/06/09 05:56:03;;;;;;;12.63;10.15;;;37.70;30.00;;;;;;4357904;32;20575;-42
2021/06/09 05:58:29;;;;;;;12.75;10.07;;;37.60;30.00;;;;;;4357497;32;20067;-41
2021/06/09 06:01:00;;;;;;;15.02;9.75;;;37.50;30.00;;;;;;4357583;32;20173;-42
2021/06/09 06:03:28;;;;;;;15.98;9.68;;;37.50;30.20;;;;;;4358209;32;20169;-41
2021/06/09 06:06:00;;;;;;;13.20;9.48;;;37.50;30.20;;;;;;4357714;32;20096;-41
2021/06/09 06:08:27;;;;;;;12.48;10.13;;;37.50;30.00;;;;;;4357806;32;20080;-41
2021/06/09 06:11:00;;;;;;;15.38;10.05;;;37.60;30.10;;;;;;4357987;32;20146;-41
2021/06/09 06:13:27;;;;;;;14.10;9.45;;;37.70;30.00;;;;;;4335667;33;20060;-41
2021/06/09 06:15:57;;;;;;;13.38;10.18;;;37.70;30.10;;;;;;4329325;33;20169;-43
2021/06/09 06:18:50;;;;;;;17.05;10.70;;;37.80;29.80;;;;;;4342561;33;20085;-41
2021/06/09 06:21:18;;;;;;;23.30;10.43;;;37.70;29.90;;;;;;4340133;32;20608;-42
2021/06/09 06:23:45;;;;;;;17.02;10.13;;;37.60;29.90;;;;;;4343643;32;20063;-43
2021/06/09 06:26:17;;;;;;;10.63;8.80;;;37.50;30.00;;;;;;4329537;33;20071;-43
2021/06/09 06:28:44;;;;;;;15.10;8.52;;;37.30;30.20;;;;;;4342884;32;20192;-41
2021/06/09 06:31:14;;;;;;;12.23;7.43;;;37.10;30.40;;;;;;4341988;32;20479;-40
2021/06/09 06:33:41;;;;;;;16.15;7.22;;;36.90;30.60;;;;;;4342620;33;20067;-42
2021/06/09 06:36:09;;;;;;;15.13;6.53;;;36.60;31.20;;;;;;4328674;33;20530;-38
2021/06/09 06:38:37;;;;;;;11.80;6.32;;;36.30;31.20;;;;;;4345439;33;20057;-40
2021/06/09 06:41:07;;;;;;;10.32;6.80;;;36.00;31.60;;;;;;4344812;32;20067;-39
2021/06/09 06:43:35;;;;;;;8.23;5.93;;;35.60;31.50;;;;;;4345184;32;20082;-39
2021/06/09 06:46:04;;;;;;;14.95;5.87;;;35.20;32.50;;;;;;4331877;33;20090;-40
2021/06/09 06:48:31;;;;;;;7.50;5.15;;;34.90;33.60;;;;;;4331512;33;20479;-40
2021/06/09 06:50:58;;;;;;;10.60;5.85;;;34.90;33.30;;;;;;4319677;33;20066;-41
2021/06/09 06:53:24;;;;;;;7.47;5.30;;;34.90;33.10;;;;;;4319867;33;20063;-42
2021/06/09 06:55:51;;;;;;;9.35;5.55;;;35.00;32.80;;;;;;4331612;33;20073;-40
2021/06/09 06:58:18;;;;;;;15.73;5.45;;;35.20;32.00;;;;;;4331680;33;20074;-40
2021/06/09 07:00:44;;;;;;;9.45;5.70;;;35.30;32.00;;;;;;4319697;33;20162;-40
2021/06/09 07:03:11;;;;;;;5.80;3.42;;;35.40;30.90;;;;;;4319201;33;20074;-40
2021/06/09 07:05:37;;;;;;;9.80;5.55;;;35.50;31.70;;;;;;4319350;33;20115;-41
2021/06/09 07:08:04;;;;;;;6.18;4.75;;;35.60;31.50;;;;;;4331158;33;20068;-40
2021/06/09 07:10:31;;;;;;;7.20;4.20;;;35.80;30.00;;;;;;4319276;33;20067;-40
2021/06/09 07:13:04;;;;;;;4.60;2.05;;;36.10;30.10;;;;;;4336644;32;20066;-41
2021/06/09 07:15:31;;;;;;;3.20;1.10;;;36.30;29.30;;;;;;4346671;32;20074;-40
2021/06/09 07:17:58;;;;;;;1.70;0.40;;;36.70;28.40;;;;;;4333549;32;20548;-40
2021/06/09 07:20:27;;;;;;;2.22;1.00;;;37.00;26.30;;;;;;4345968;32;20499;-49
2021/06/09 07:22:54;;;;;;;2.08;0.70;;;37.20;27.30;;;;;;4346327;32;20069;-41
2021/06/09 07:25:22;;;;;;;3.60;0.52;;;37.50;26.70;;;;;;4359888;32;20499;-40
2021/06/09 07:27:53;;;;;;;3.25;0.88;;;37.70;25.40;;;;;;4360024;32;20071;-40
2021/06/09 07:30:21;;;;;;;10.50;1.30;;;37.70;25.20;;;;;;4360069;32;20075;-42
2021/06/09 07:32:47;;;;;;;8.60;0.95;;;37.80;25.90;;;;;;4333418;32;20066;-41
2021/06/09 07:35:16;;;;;;;12.25;1.02;;;37.80;26.10;;;;;;4345803;32;20157;-43
2021/06/09 07:37:51;;;;;;;2.75;0.43;;;37.80;25.90;;;;;;4345895;32;20098;-42
2021/06/09 07:40:23;;;;;;;3.42;0.65;;;37.80;24.10;;;;;;4346094;32;20106;-41
2021/06/09 07:42:52;;;;;;;1.95;0.50;;;37.90;24.80;;;;;;4346437;32;20063;-41
2021/06/09 07:45:20;;;;;;;0.70;0.50;;;38.00;24.10;;;;;;4333512;32;20073;-41
2021/06/09 07:47:47;;;;;;;3.08;0.77;;;38.00;24.10;;;;;;4359499;32;20151;-41
2021/06/09 07:50:19;;;;;;;2.70;0.80;;;38.20;25.10;;;;;;4345119;32;20070;-41
2021/06/09 07:52:45;;;;;;;3.15;1.00;;;38.30;24.50;;;;;;4345901;32;20074;-41
2021/06/09 07:55:12;;;;;;;2.85;1.08;;;38.40;24.90;;;;;;4345415;32;20566;-41
2021/06/09 07:57:41;;;;;;;3.12;1.70;;;38.50;24.60;;;;;;4345314;32;20094;-42
2021/06/09 08:00:12;;;;;;;4.00;0.62;;;38.70;25.00;;;;;;4344889;32;20067;-42
2021/06/09 08:02:42;;;;;;;2.85;1.20;;;38.90;24.60;;;;;;4359708;32;20568;-43
2021/06/09 08:05:10;;;;;;;2.03;0.52;;;39.00;24.80;;;;;;4358914;32;20067;-41
2021/06/09 08:07:39;;;;;;;2.37;0.68;;;39.20;24.50;;;;;;4359032;32;20084;-41
2021/06/09 08:10:08;;;;;;;1.67;0.62;;;39.30;24.20;;;;;;4359246;32;20093;-41
2021/06/09 08:12:35;;;;;;;3.37;1.10;;;39.60;24.10;;;;;;4355620;32;20050;-42
2021/06/09 08:15:02;;;;;;;3.87;1.98;;;39.70;24.90;;;;;;4318303;33;20498;-41
2021/06/09 08:17:29;;;;;;;4.03;2.62;;;39.60;25.00;;;;;;4343794;32;20072;-44
2021/06/09 08:19:55;;;;;;;5.60;1.70;;;39.50;26.10;;;;;;4330384;33;20216;-42
2021/06/09 08:22:22;;;;;;;2.95;1.33;;;39.30;26.10;;;;;;4344503;32;20466;-42
2021/06/09 08:24:49;;;;;;;5.95;1.05;;;39.20;26.10;;;;;;4344277;33;20102;-43
2021/06/09 08:27:16;;;;;;;8.10;1.73;;;39.10;26.10;;;;;;4343954;33;20070;-43
2021/06/09 08:29:43;;;;;;;3.53;0.93;;;39.00;26.40;;;;;;4329932;33;20063;-42
2021/06/09 08:32:09;;;;;;;3.08;0.90;;;38.90;25.90;;;;;;4343630;32;20093;-43
2021/06/09 08:34:36;;;;;;;2.35;0.70;;;38.90;24.90;;;;;;4343373;32;20150;-44
2021/06/09 08:37:02;;;;;;;1.45;0.75;;;38.90;24.50;;;;;;4343592;33;20081;-43
2021/06/09 08:39:29;;;;;;;3.58;0.60;;;38.90;24.20;;;;;;4330048;33;20065;-42
2021/06/09 08:41:56;;;;;;;5.07;1.05;;;38.80;24.30;;;;;;4329780;33;20141;-41
2021/06/09 08:44:25;;;;;;;1.70;0.90;;;38.60;24.40;;;;;;4343705;32;20148;-41
2021/06/09 08:46:57;;;;;;;1.30;0.68;;;38.60;24.60;;;;;;4343900;33;20128;-41
2021/06/09 08:49:23;;;;;;;4.60;0.70;;;38.50;24.40;;;;;;4330319;33;20086;-41
2021/06/09 08:51:50;;;;;;;1.17;0.52;;;38.40;24.70;;;;;;4317412;33;20065;-42
2021/06/09 08:54:16;;;;;;;0.80;0.68;;;38.40;24.40;;;;;;4317600;33;20079;-42
2021/06/09 08:56:43;;;;;;;12.85;9.52;;;38.30;24.30;;;;;;4329261;33;20582;-40
2021/06/09 08:59:09;;;;;;;4.30;2.08;;;38.20;24.60;;;;;;4343294;32;20533;-41
2021/06/09 09:01:36;;;;;;;3.95;1.10;;;38.20;24.20;;;;;;4342581;32;20066;-41
2021/06/09 09:04:03;;;;;;;6.55;2.42;;;38.20;24.10;;;;;;4329459;33;20063;-42
2021/06/09 09:06:30;;;;;;;6.82;2.40;;;38.30;24.50;;;;;;4329546;33;20055;-41
2021/06/09 09:08:56;;;;;;;4.85;1.87;;;38.40;24.60;;;;;;4329333;33;20129;-39
2021/06/09 09:11:23;;;;;;;7.43;2.20;;;38.60;24.50;;;;;;4343513;32;20470;-41
2021/06/09 09:13:50;;;;;;;1.30;0.88;;;38.70;24.20;;;;;;4353745;32;20174;-43
2021/06/09 09:16:17;;;;;;;9.95;1.20;;;38.60;24.40;;;;;;4331636;32;20074;-42
2021/06/09 09:19:04;;;;;;;4.70;1.12;;;38.70;24.90;;;;;;4357925;32;20080;-42
2021/06/09 09:21:43;;;;;;;1.80;0.98;;;38.80;24.50;;;;;;4357924;32;20161;-44
2021/06/09 09:24:12;;;;;;;1.37;0.52;;;38.80;24.80;;;;;;4299665;33;20368;-41
2021/06/09 09:26:42;;;;;;;2.97;0.70;;;38.70;24.00;;;;;;4311372;33;20115;-41
2021/06/09 09:29:10;;;;;;;3.80;0.70;;;38.80;23.90;;;;;;4293856;33;20091;-42
2021/06/09 09:31:51;;;;;;;3.30;0.70;;;38.80;24.00;;;;;;4295520;33;20075;-41
2021/06/09 09:34:34;;;;;;;2.03;0.70;;;38.90;24.00;;;;;;4272625;33;20099;-41
2021/06/09 09:37:06;;;;;;;5.82;1.10;;;39.00;23.80;;;;;;4284899;33;20075;-42
2021/06/09 09:39:35;;;;;;;3.72;0.80;;;39.00;24.00;;;;;;4296697;33;20102;-41
2021/06/09 09:42:20;;;;;;;2.85;0.70;;;39.00;23.70;;;;;;4267822;33;20095;-41
2021/06/09 09:44:48;;;;;;;4.87;1.02;;;39.00;23.30;;;;;;4267868;33;20088;-41
2021/06/09 09:47:22;;;;;;;2.53;0.70;;;39.10;23.50;;;;;;4244521;33;20072;-42
2021/06/09 09:49:49;;;;;;;0.98;0.30;;;39.00;23.50;;;;;;4267986;33;20181;-42
2021/06/09 09:52:15;;;;;;;2.00;0.50;;;39.10;22.50;;;;;;4268024;33;20482;-42
2021/06/09 09:54:44;;;;;;;5.78;0.55;;;39.10;22.80;;;;;;4276527;33;20110;-43
2021/06/09 09:57:13;;;;;;;0.50;0.30;;;39.20;22.80;;;;;;4296275;33;20068;-41
2021/06/09 09:59:40;;;;;;;2.10;0.30;;;39.40;22.00;;;;;;4296572;33;20294;-42
2021/06/09 10:02:16;;;;;;;1.23;0.40;;;39.50;21.90;;;;;;4285012;33;20068;-42
2021/06/09 10:04:48;;;;;;;2.03;0.30;;;39.70;21.90;;;;;;4284672;33;20452;-42
2021/06/09 10:07:15;;;;;;;4.18;0.50;;;39.80;22.10;;;;;;4292471;33;20582;-41
2021/06/09 10:09:44;;;;;;;0.80;0.30;;;39.90;21.90;;;;;;4299268;33;20078;-42
2021/06/09 10:12:15;;;;;;;3.75;0.70;;;39.80;21.80;;;;;;4288801;33;20067;-42
2021/06/09 10:14:47;;;;;;;1.35;0.40;;;39.70;21.60;;;;;;4302305;33;20086;-41
2021/06/09 10:17:34;;;;;;;6.30;0.80;;;39.50;21.90;;;;;;4302327;33;20139;-43
2021/06/09 10:20:02;;;;;;;29.75;1.50;;;39.40;23.00;;;;;;4310472;33;20083;-41
2021/06/09 10:22:35;;;;;;;7.47;0.62;;;39.40;22.80;;;;;;4318920;33;20067;-42
2021/06/09 10:25:12;;;;;;;1.52;0.50;;;39.40;23.10;;;;;;4316389;33;20148;-41
2021/06/09 10:27:48;;;;;;;10.68;0.70;;;39.40;22.00;;;;;;4304578;33;20082;-42
2021/06/09 10:30:18;;;;;;;4.40;0.50;;;39.30;22.40;;;;;;4316837;33;20075;-42
2021/06/09 10:32:57;;;;;;;3.28;0.95;;;39.30;22.60;;;;;;4328082;33;20086;-42
2021/06/09 10:35:26;;;;;;;1.00;0.40;;;39.20;22.30;;;;;;4316633;33;20130;-42
2021/06/09 10:37:54;;;;;;;1.50;0.40;;;39.10;22.60;;;;;;4286886;33;20578;-42
2021/06/09 10:40:23;;;;;;;1.70;0.88;;;39.00;22.90;;;;;;4272337;33;20095;-41
2021/06/09 10:42:50;;;;;;;2.85;0.47;;;38.80;22.70;;;;;;4249761;33;20147;-39
2021/06/09 10:45:17;;;;;;;4.28;0.60;;;38.60;23.00;;;;;;4260937;33;20072;-41
2021/06/09 10:47:45;;;;;;;1.37;0.50;;;38.40;23.40;;;;;;4284544;33;20154;-42
2021/06/09 10:50:12;;;;;;;1.60;0.60;;;38.40;23.10;;;;;;4284399;33;20579;-40
2021/06/09 10:52:39;;;;;;;1.55;0.45;;;38.40;23.20;;;;;;4260472;33;20231;-42
2021/06/09 10:55:08;;;;;;;1.67;0.50;;;38.50;23.30;;;;;;4284433;33;20107;-41
2021/06/09 10:57:35;;;;;;;3.20;0.50;;;38.60;24.40;;;;;;4260743;33;20079;-41
2021/06/09 11:00:23;;;;;;;4.87;0.60;;;38.80;24.80;;;;;;4272541;33;20072;-41
2021/06/09 11:02:50;;;;;;;0.60;0.40;;;38.80;24.40;;;;;;4233611;33;20073;-41
2021/06/09 11:05:16;;;;;;;5.07;0.57;;;38.80;24.10;;;;;;4220617;33;20123;-42
2021/06/09 11:07:46;;;;;;;1.75;0.50;;;38.80;23.90;;;;;;4243904;33;20072;-41
2021/06/09 11:10:30;;;;;;;0.60;0.40;;;38.70;24.10;;;;;;4263472;33;20068;-40
2021/06/09 11:12:56;;;;;;;9.17;0.90;;;38.60;24.60;;;;;;4260971;33;20084;-40
2021/06/09 11:15:32;;;;;;;3.72;0.57;;;38.60;24.40;;;;;;4248629;33;20186;-41
2021/06/09 11:18:12;;;;;;;3.80;0.40;;;38.50;24.50;;;;;;4272475;33;20158;-40
2021/06/09 11:20:47;;;;;;;3.37;0.50;;;38.50;24.40;;;;;;4257993;33;20100;-42
2021/06/09 11:23:32;;;;;;;1.80;0.50;;;38.60;24.30;;;;;;4268721;33;20080;-41
2021/06/09 11:25:59;;;;;;;5.25;0.60;;;38.50;23.70;;;;;;4258348;33;20123;-40
2021/06/09 11:28:38;;;;;;;5.55;0.40;;;38.50;23.60;;;;;;4257901;33;20111;-40
2021/06/09 11:31:07;;;;;;;4.05;0.50;;;38.50;23.30;;;;;;4257440;33;20685;-40
2021/06/09 11:33:54;;;;;;;2.00;0.60;;;38.50;23.40;;;;;;4254707;33;20115;-41
2021/06/09 11:36:21;;;;;;;2.08;0.40;;;38.50;23.10;;;;;;4227037;33;20100;-40
2021/06/09 11:38:52;;;;;;;1.58;0.30;;;38.60;23.30;;;;;;4219454;33;20069;-40
2021/06/09 11:41:27;;;;;;;2.58;0.40;;;38.70;23.50;;;;;;4211472;34;20544;-40
2021/06/09 11:43:56;;;;;;;1.27;0.40;;;38.80;23.20;;;;;;4187358;34;20095;-41
2021/06/09 11:46:38;;;;;;;3.45;0.50;;;38.90;23.00;;;;;;4199019;34;20090;-41
2021/06/09 11:49:11;;;;;;;0.47;0.40;;;38.90;23.00;;;;;;4198715;34;20088;-42
2021/06/09 11:52:01;;;;;;;5.70;0.50;;;38.80;22.40;;;;;;4151914;34;20086;-41
2021/06/09 11:54:32;;;;;;;3.35;0.37;;;38.80;23.00;;;;;;4171428;34;20070;-40
2021/06/09 11:57:02;;;;;;;2.53;0.43;;;38.60;23.20;;;;;;4172210;34;20189;-41
2021/06/09 11:59:33;;;;;;;2.45;0.40;;;38.40;23.40;;;;;;4198817;34;20073;-40
2021/06/09 12:02:02;;;;;;;5.62;0.57;;;38.30;23.60;;;;;;4198607;34;20578;-43
2021/06/09 12:04:40;;;;;;;1.37;0.45;;;38.10;23.50;;;;;;4207395;33;20081;-41
2021/06/09 12:07:09;;;;;;;1.17;0.35;;;38.00;23.20;;;;;;4215433;33;20073;-40
2021/06/09 12:09:38;;;;;;;4.53;0.52;;;37.90;22.80;;;;;;4215233;33;20498;-41
2021/06/09 12:12:29;;;;;;;0.95;0.30;;;37.90;23.20;;;;;;4214758;33;20107;-41
2021/06/09 12:14:58;;;;;;;1.80;0.40;;;37.80;22.90;;;;;;4228282;33;20073;-41
2021/06/09 12:17:32;;;;;;;2.78;0.30;;;37.80;22.80;;;;;;4254837;33;20167;-42
2021/06/09 12:20:20;;;;;;;0.93;0.40;;;37.90;22.70;;;;;;4260758;33;20163;-41
2021/06/09 12:22:51;;;;;;;0.77;0.30;;;37.90;22.70;;;;;;4256622;33;20323;-41
2021/06/09 12:25:22;;;;;;;2.05;0.30;;;38.10;22.90;;;;;;4268777;33;20157;-42
2021/06/09 12:28:21;;;;;;;0.30;0.30;;;38.00;22.70;;;;;;4268763;33;20068;-41
2021/06/09 12:30:58;;;;;;;6.07;0.60;;;38.10;22.60;;;;;;4268634;33;20157;-42
2021/06/09 12:33:39;;;;;;;1.45;0.30;;;38.10;23.00;;;;;;4266140;33;20288;-41
2021/06/09 12:36:11;;;;;;;2.70;0.68;;;38.10;22.20;;;;;;4242681;33;20065;-42
2021/06/09 12:38:38;;;;;;;2.92;0.50;;;38.10;22.50;;;;;;4231319;33;20175;-42
2021/06/09 12:41:09;;;;;;;0.90;0.60;;;38.00;22.90;;;;;;4228467;33;20073;-40
2021/06/09 12:43:40;;;;;;;4.95;1.65;;;38.00;23.00;;;;;;4217895;33;20548;-41
2021/06/09 12:46:07;;;;;;;12.05;2.53;;;38.10;24.00;;;;;;4215881;33;20107;-40
2021/06/09 12:48:37;;;;;;;2.33;1.25;;;38.20;24.20;;;;;;4191611;33;20593;-41
2021/06/09 12:51:07;;;;;;;6.05;0.73;;;38.30;23.90;;;;;;4202970;33;20081;-41
2021/06/09 12:53:34;;;;;;;2.30;0.20;;;38.30;23.50;;;;;;4226333;33;20084;-41
2021/06/09 12:56:06;;;;;;;2.95;0.47;;;38.20;22.70;;;;;;4189098;34;20498;-42
2021/06/09 12:58:34;;;;;;;2.08;0.40;;;38.10;22.90;;;;;;4184170;34;20131;-42